Wednesday, August 15, 2018, 11:59 PM EDT
Back to Local

KHLG, Wheeling Ohio County Airport

Location: Wheeling, WV, United States Lat: 40.167
Local Time: 11:59 PM EDT ( 3:59 GMT) Lon: -80.65
Time Zone: US/Eastern Elev: 1194 ft

Show me the last for .
Show Decoded

2018-08-15 22:53 METAR KHLG 160253Z AUTO 14005KT 10SM CLR 23/19 A3008 RMK AO2 SLP180 T02280194
                 50005 =
2018-08-15 21:53 METAR KHLG 160153Z 17004KT 10SM CLR 23/19 A3008 RMK AO2 SLP180 T02330194 =
2018-08-15 20:53 METAR KHLG 160053Z 20005KT 10SM CLR 24/19 A3007 RMK AO2 SLP176 T02440189 =
2018-08-15 19:53 METAR KHLG 152353Z 22004KT 10SM CLR 25/19 A3006 RMK AO2 SLP175 T02500194 10289
                 20250 53000 =
2018-08-15 18:53 METAR KHLG 152253Z 00000KT 10SM CLR 27/21 A3006 RMK AO2 SLP173 T02670206 =
2018-08-15 17:53 METAR KHLG 152153Z 25004KT 10SM CLR 27/19 A3006 RMK AO2 SLP173 T02720189 =
2018-08-15 16:53 METAR KHLG 152053Z 27004KT 10SM FEW049 29/19 A3006 RMK AO2 SLP173 T02890194
                 58006 =
2018-08-15 15:53 METAR KHLG 151953Z 25005KT 10SM CLR 28/19 A3007 RMK AO2 SLP175 T02830194 =
2018-08-15 14:53 METAR KHLG 151853Z 24006KT 10SM CLR 29/21 A3008 RMK AO2 SLP178 T02890211 =
2018-08-15 13:53 METAR KHLG 151753Z 26005KT 10SM FEW028 28/21 A3008 RMK AO2 SLP179 T02780206
                 10278 20189 58004 =
2018-08-15 12:53 METAR KHLG 151653Z VRB04KT 10SM SCT023 27/21 A3008 RMK AO2 SLP180 T02670206 =
2018-08-15 11:53 METAR KHLG 151553Z 22005KT 10SM CLR 26/21 A3009 RMK AO2 SLP183 T02560206 =
2018-08-15 10:53 METAR KHLG 151453Z 24005KT 10SM CLR 24/20 A3009 RMK AO2 SLP185 T02390200 51007 =
2018-08-15 09:53 METAR KHLG 151353Z 25004KT 10SM CLR 23/19 A3009 RMK AO2 SLP182 T02330194 =
2018-08-15 08:53 METAR KHLG 151253Z 19003KT 9SM FEW037 21/18 A3008 RMK AO2 SLP180 T02060183 =
2018-08-15 07:53 METAR KHLG 151153Z 20004KT 6SM BR SCT038 19/18 A3007 RMK AO2 SLP178 70001
                 T01890178 10206 20183 53013 =
2018-08-15 06:53 METAR KHLG 151053Z 18004KT 5SM BR CLR 18/17 A3005 RMK AO2 SLP171 T01830167 =
2018-08-15 05:53 METAR KHLG 150953Z AUTO 21004KT 10SM CLR 19/17 A3004 RMK AO2 SLP167 T01890172 =
2018-08-15 04:53 METAR KHLG 150853Z AUTO 22004KT 10SM CLR 19/17 A3003 RMK AO2 SLP165 T01890172
                 53001 =
2018-08-15 03:53 METAR KHLG 150753Z AUTO 21003KT 10SM CLR 19/17 A3002 RMK AO2 SLP160 T01940172 =
2018-08-15 02:53 METAR KHLG 150653Z AUTO 21005KT 10SM CLR 20/17 A3002 RMK AO2 SLP160 T02000172 =
2018-08-15 01:53 METAR KHLG 150553Z AUTO 19004KT 10SM CLR 21/17 A3003 RMK AO2 SLP163 T02060172
                 10244 20206 50003 =
2018-08-15 00:53 METAR KHLG 150453Z AUTO 21005KT 10SM CLR 21/17 A3003 RMK AO2 SLP164 T02110172
                 402780156 =

Support USWX by starting your Amazon purchase here.